sensor_id;sensor_type;location;lat;lon;timestamp;P1;durP1;ratioP1;P2;durP2;ratioP2
6832;SDS011;3454;42.654;23.378;2023-09-19T00:01:41;3.97;;;3.15;;
6832;SDS011;3454;42.654;23.378;2023-09-19T00:04:10;4.45;;;2.92;;
6832;SDS011;3454;42.654;23.378;2023-09-19T00:06:38;3.72;;;3.20;;
6832;SDS011;3454;42.654;23.378;2023-09-19T00:09:04;4.38;;;3.70;;
6832;SDS011;3454;42.654;23.378;2023-09-19T00:11:35;3.58;;;3.00;;
6832;SDS011;3454;42.654;23.378;2023-09-19T00:14:00;3.67;;;3.13;;
6832;SDS011;3454;42.654;23.378;2023-09-19T00:16:26;5.88;;;3.30;;
6832;SDS011;3454;42.654;23.378;2023-09-19T00:18:52;7.47;;;3.55;;
6832;SDS011;3454;42.654;23.378;2023-09-19T00:21:18;3.55;;;3.25;;
6832;SDS011;3454;42.654;23.378;2023-09-19T00:23:44;5.43;;;3.58;;
6832;SDS011;3454;42.654;23.378;2023-09-19T00:26:10;5.03;;;3.42;;
6832;SDS011;3454;42.654;23.378;2023-09-19T00:28:36;5.55;;;3.35;;
6832;SDS011;3454;42.654;23.378;2023-09-19T00:31:01;6.85;;;3.40;;
6832;SDS011;3454;42.654;23.378;2023-09-19T00:33:27;4.30;;;3.30;;
6832;SDS011;3454;42.654;23.378;2023-09-19T00:35:57;4.80;;;3.08;;
6832;SDS011;3454;42.654;23.378;2023-09-19T00:38:23;5.32;;;3.35;;
6832;SDS011;3454;42.654;23.378;2023-09-19T00:40:52;4.03;;;3.40;;
6832;SDS011;3454;42.654;23.378;2023-09-19T00:43:22;4.47;;;3.28;;
6832;SDS011;3454;42.654;23.378;2023-09-19T00:45:50;6.18;;;3.22;;
6832;SDS011;3454;42.654;23.378;2023-09-19T00:48:21;6.47;;;3.10;;
6832;SDS011;3454;42.654;23.378;2023-09-19T00:50:49;3.90;;;3.60;;
6832;SDS011;3454;42.654;23.378;2023-09-19T00:53:18;5.53;;;3.72;;
6832;SDS011;3454;42.654;23.378;2023-09-19T00:55:48;5.00;;;3.72;;
6832;SDS011;3454;42.654;23.378;2023-09-19T00:58:16;5.70;;;3.22;;
6832;SDS011;3454;42.654;23.378;2023-09-19T01:00:43;3.92;;;3.53;;
6832;SDS011;3454;42.654;23.378;2023-09-19T01:03:10;3.50;;;3.20;;
6832;SDS011;3454;42.654;23.378;2023-09-19T01:05:38;5.47;;;3.92;;
6832;SDS011;3454;42.654;23.378;2023-09-19T01:08:04;5.78;;;3.70;;
6832;SDS011;3454;42.654;23.378;2023-09-19T01:10:32;5.22;;;3.47;;
6832;SDS011;3454;42.654;23.378;2023-09-19T01:13:06;6.63;;;3.65;;
6832;SDS011;3454;42.654;23.378;2023-09-19T01:18:47;6.97;;;3.70;;
6832;SDS011;3454;42.654;23.378;2023-09-19T01:32:04;4.45;;;3.90;;
6832;SDS011;3454;42.654;23.378;2023-09-19T01:37:31;7.63;;;4.30;;
6832;SDS011;3454;42.654;23.378;2023-09-19T01:40:06;5.20;;;3.67;;
6832;SDS011;3454;42.654;23.378;2023-09-19T01:42:45;4.53;;;3.45;;
6832;SDS011;3454;42.654;23.378;2023-09-19T01:47:52;4.18;;;3.63;;
6832;SDS011;3454;42.654;23.378;2023-09-19T01:52:59;4.85;;;3.90;;
6832;SDS011;3454;42.654;23.378;2023-09-19T01:55:30;5.30;;;4.00;;
6832;SDS011;3454;42.654;23.378;2023-09-19T01:58:12;6.93;;;4.43;;
6832;SDS011;3454;42.654;23.378;2023-09-19T02:00:44;5.20;;;4.30;;
6832;SDS011;3454;42.654;23.378;2023-09-19T02:03:17;9.73;;;5.03;;
6832;SDS011;3454;42.654;23.378;2023-09-19T02:05:50;7.80;;;3.90;;
6832;SDS011;3454;42.654;23.378;2023-09-19T02:08:18;5.13;;;3.92;;
6832;SDS011;3454;42.654;23.378;2023-09-19T02:10:45;8.30;;;5.80;;
6832;SDS011;3454;42.654;23.378;2023-09-19T02:13:17;6.35;;;3.80;;
6832;SDS011;3454;42.654;23.378;2023-09-19T02:15:45;8.63;;;3.60;;
6832;SDS011;3454;42.654;23.378;2023-09-19T02:18:11;5.35;;;4.50;;
6832;SDS011;3454;42.654;23.378;2023-09-19T02:20:38;8.00;;;5.05;;
6832;SDS011;3454;42.654;23.378;2023-09-19T02:23:04;5.50;;;4.80;;
6832;SDS011;3454;42.654;23.378;2023-09-19T02:25:30;6.32;;;4.28;;
6832;SDS011;3454;42.654;23.378;2023-09-19T02:27:57;4.53;;;3.70;;
6832;SDS011;3454;42.654;23.378;2023-09-19T02:30:24;6.13;;;3.92;;
6832;SDS011;3454;42.654;23.378;2023-09-19T02:32:57;7.47;;;5.07;;
6832;SDS011;3454;42.654;23.378;2023-09-19T02:35:23;8.30;;;4.82;;
6832;SDS011;3454;42.654;23.378;2023-09-19T02:37:50;5.22;;;4.10;;
6832;SDS011;3454;42.654;23.378;2023-09-19T02:40:16;4.38;;;3.97;;
6832;SDS011;3454;42.654;23.378;2023-09-19T02:42:47;5.78;;;4.03;;
6832;SDS011;3454;42.654;23.378;2023-09-19T02:45:18;4.78;;;3.90;;
6832;SDS011;3454;42.654;23.378;2023-09-19T02:47:45;5.28;;;4.45;;
6832;SDS011;3454;42.654;23.378;2023-09-19T02:50:12;8.27;;;5.00;;
6832;SDS011;3454;42.654;23.378;2023-09-19T02:52:44;8.55;;;4.88;;
6832;SDS011;3454;42.654;23.378;2023-09-19T02:55:14;7.38;;;4.28;;
6832;SDS011;3454;42.654;23.378;2023-09-19T02:57:52;6.32;;;4.10;;
6832;SDS011;3454;42.654;23.378;2023-09-19T03:00:20;5.20;;;3.63;;
6832;SDS011;3454;42.654;23.378;2023-09-19T03:02:53;6.78;;;4.30;;
6832;SDS011;3454;42.654;23.378;2023-09-19T03:05:21;7.97;;;3.85;;
6832;SDS011;3454;42.654;23.378;2023-09-19T03:07:51;5.55;;;4.07;;
6832;SDS011;3454;42.654;23.378;2023-09-19T03:10:21;7.55;;;4.75;;
6832;SDS011;3454;42.654;23.378;2023-09-19T03:12:47;8.60;;;5.32;;
6832;SDS011;3454;42.654;23.378;2023-09-19T03:15:13;6.35;;;4.45;;
6832;SDS011;3454;42.654;23.378;2023-09-19T03:17:44;8.52;;;4.15;;
6832;SDS011;3454;42.654;23.378;2023-09-19T03:20:10;4.97;;;4.38;;
6832;SDS011;3454;42.654;23.378;2023-09-19T03:22:38;8.35;;;5.47;;
6832;SDS011;3454;42.654;23.378;2023-09-19T03:25:05;6.78;;;4.50;;
6832;SDS011;3454;42.654;23.378;2023-09-19T03:27:36;7.45;;;4.35;;
6832;SDS011;3454;42.654;23.378;2023-09-19T03:30:08;9.68;;;5.68;;
6832;SDS011;3454;42.654;23.378;2023-09-19T03:32:35;7.70;;;4.72;;
6832;SDS011;3454;42.654;23.378;2023-09-19T03:35:01;9.13;;;4.95;;
6832;SDS011;3454;42.654;23.378;2023-09-19T03:37:30;6.97;;;4.85;;
6832;SDS011;3454;42.654;23.378;2023-09-19T03:39:57;6.03;;;4.68;;
6832;SDS011;3454;42.654;23.378;2023-09-19T03:42:22;7.68;;;5.93;;
6832;SDS011;3454;42.654;23.378;2023-09-19T03:44:50;6.93;;;5.60;;
6832;SDS011;3454;42.654;23.378;2023-09-19T03:47:17;10.55;;;4.50;;
6832;SDS011;3454;42.654;23.378;2023-09-19T03:49:44;11.65;;;8.43;;
6832;SDS011;3454;42.654;23.378;2023-09-19T03:52:11;6.18;;;5.47;;
6832;SDS011;3454;42.654;23.378;2023-09-19T03:54:37;11.15;;;7.03;;
6832;SDS011;3454;42.654;23.378;2023-09-19T03:57:03;8.95;;;5.43;;
6832;SDS011;3454;42.654;23.378;2023-09-19T03:59:29;7.40;;;5.13;;
6832;SDS011;3454;42.654;23.378;2023-09-19T04:01:54;7.68;;;4.82;;
6832;SDS011;3454;42.654;23.378;2023-09-19T04:04:22;10.07;;;5.00;;
6832;SDS011;3454;42.654;23.378;2023-09-19T04:06:50;4.97;;;4.43;;
6832;SDS011;3454;42.654;23.378;2023-09-19T04:09:17;8.68;;;5.25;;
6832;SDS011;3454;42.654;23.378;2023-09-19T04:11:43;7.82;;;5.53;;
6832;SDS011;3454;42.654;23.378;2023-09-19T04:14:09;8.27;;;5.60;;
6832;SDS011;3454;42.654;23.378;2023-09-19T04:16:34;6.88;;;5.13;;
6832;SDS011;3454;42.654;23.378;2023-09-19T04:19:00;10.95;;;5.15;;
6832;SDS011;3454;42.654;23.378;2023-09-19T04:21:26;6.95;;;4.38;;
6832;SDS011;3454;42.654;23.378;2023-09-19T04:23:53;6.25;;;4.60;;
6832;SDS011;3454;42.654;23.378;2023-09-19T04:26:18;7.30;;;4.40;;
6832;SDS011;3454;42.654;23.378;2023-09-19T04:28:45;7.90;;;4.82;;
6832;SDS011;3454;42.654;23.378;2023-09-19T04:31:11;8.43;;;4.65;;
6832;SDS011;3454;42.654;23.378;2023-09-19T04:33:39;7.22;;;4.95;;
6832;SDS011;3454;42.654;23.378;2023-09-19T04:36:05;5.72;;;5.05;;
6832;SDS011;3454;42.654;23.378;2023-09-19T04:38:32;6.32;;;4.70;;
6832;SDS011;3454;42.654;23.378;2023-09-19T04:40:58;8.40;;;4.50;;
6832;SDS011;3454;42.654;23.378;2023-09-19T04:43:24;6.85;;;4.90;;
6832;SDS011;3454;42.654;23.378;2023-09-19T04:45:50;8.27;;;4.60;;
6832;SDS011;3454;42.654;23.378;2023-09-19T04:48:16;5.55;;;4.30;;
6832;SDS011;3454;42.654;23.378;2023-09-19T04:50:41;7.47;;;4.53;;
6832;SDS011;3454;42.654;23.378;2023-09-19T04:53:08;6.53;;;4.95;;
6832;SDS011;3454;42.654;23.378;2023-09-19T04:55:33;7.13;;;5.28;;
6832;SDS011;3454;42.654;23.378;2023-09-19T04:57:58;12.38;;;5.45;;
6832;SDS011;3454;42.654;23.378;2023-09-19T05:00:25;6.45;;;4.70;;
6832;SDS011;3454;42.654;23.378;2023-09-19T05:02:54;7.10;;;4.78;;
6832;SDS011;3454;42.654;23.378;2023-09-19T05:05:23;9.73;;;5.63;;
6832;SDS011;3454;42.654;23.378;2023-09-19T05:07:50;9.07;;;5.53;;
6832;SDS011;3454;42.654;23.378;2023-09-19T05:10:18;11.20;;;5.30;;
6832;SDS011;3454;42.654;23.378;2023-09-19T05:12:45;7.20;;;5.30;;
6832;SDS011;3454;42.654;23.378;2023-09-19T05:15:13;11.27;;;5.72;;
6832;SDS011;3454;42.654;23.378;2023-09-19T05:17:42;9.30;;;5.57;;
6832;SDS011;3454;42.654;23.378;2023-09-19T05:20:14;9.95;;;5.72;;
6832;SDS011;3454;42.654;23.378;2023-09-19T05:22:41;7.10;;;5.18;;
6832;SDS011;3454;42.654;23.378;2023-09-19T05:25:08;8.07;;;5.35;;
6832;SDS011;3454;42.654;23.378;2023-09-19T05:27:35;11.80;;;5.22;;
6832;SDS011;3454;42.654;23.378;2023-09-19T05:30:00;27.25;;;4.90;;
6832;SDS011;3454;42.654;23.378;2023-09-19T05:32:26;11.27;;;4.95;;
6832;SDS011;3454;42.654;23.378;2023-09-19T05:34:51;7.05;;;5.22;;
6832;SDS011;3454;42.654;23.378;2023-09-19T05:37:18;5.28;;;4.68;;
6832;SDS011;3454;42.654;23.378;2023-09-19T05:39:44;5.47;;;4.45;;
6832;SDS011;3454;42.654;23.378;2023-09-19T05:42:10;11.80;;;6.03;;
6832;SDS011;3454;42.654;23.378;2023-09-19T05:44:36;8.23;;;5.13;;
6832;SDS011;3454;42.654;23.378;2023-09-19T05:47:02;5.70;;;4.45;;
6832;SDS011;3454;42.654;23.378;2023-09-19T05:49:28;9.23;;;4.80;;
6832;SDS011;3454;42.654;23.378;2023-09-19T05:51:54;9.63;;;4.68;;
6832;SDS011;3454;42.654;23.378;2023-09-19T05:54:22;6.43;;;4.35;;
6832;SDS011;3454;42.654;23.378;2023-09-19T05:56:47;5.85;;;4.13;;
6832;SDS011;3454;42.654;23.378;2023-09-19T05:59:14;10.90;;;5.00;;
6832;SDS011;3454;42.654;23.378;2023-09-19T06:01:42;5.15;;;4.53;;
6832;SDS011;3454;42.654;23.378;2023-09-19T06:04:08;6.05;;;5.05;;
6832;SDS011;3454;42.654;23.378;2023-09-19T06:06:34;4.45;;;4.00;;
6832;SDS011;3454;42.654;23.378;2023-09-19T06:09:06;7.68;;;4.32;;
6832;SDS011;3454;42.654;23.378;2023-09-19T06:11:35;5.43;;;4.53;;
6832;SDS011;3454;42.654;23.378;2023-09-19T06:14:01;11.98;;;5.07;;
6832;SDS011;3454;42.654;23.378;2023-09-19T06:16:28;5.07;;;4.07;;
6832;SDS011;3454;42.654;23.378;2023-09-19T06:18:54;6.38;;;4.70;;
6832;SDS011;3454;42.654;23.378;2023-09-19T06:21:21;7.15;;;5.43;;
6832;SDS011;3454;42.654;23.378;2023-09-19T06:23:49;7.22;;;4.63;;
6832;SDS011;3454;42.654;23.378;2023-09-19T06:26:14;7.45;;;4.53;;
6832;SDS011;3454;42.654;23.378;2023-09-19T06:28:40;8.70;;;6.00;;
6832;SDS011;3454;42.654;23.378;2023-09-19T06:31:06;7.13;;;5.28;;
6832;SDS011;3454;42.654;23.378;2023-09-19T06:33:35;6.78;;;5.20;;
6832;SDS011;3454;42.654;23.378;2023-09-19T06:36:04;5.40;;;4.63;;
6832;SDS011;3454;42.654;23.378;2023-09-19T06:38:31;10.45;;;5.63;;
6832;SDS011;3454;42.654;23.378;2023-09-19T06:40:59;12.07;;;5.80;;
6832;SDS011;3454;42.654;23.378;2023-09-19T06:43:26;9.20;;;5.85;;
6832;SDS011;3454;42.654;23.378;2023-09-19T06:45:56;11.10;;;5.40;;
6832;SDS011;3454;42.654;23.378;2023-09-19T06:48:22;11.88;;;5.40;;
6832;SDS011;3454;42.654;23.378;2023-09-19T06:50:50;9.70;;;5.38;;
6832;SDS011;3454;42.654;23.378;2023-09-19T06:53:16;8.70;;;4.97;;
6832;SDS011;3454;42.654;23.378;2023-09-19T06:55:42;5.35;;;4.78;;
6832;SDS011;3454;42.654;23.378;2023-09-19T06:58:09;5.57;;;4.60;;
6832;SDS011;3454;42.654;23.378;2023-09-19T07:00:36;9.70;;;4.85;;
6832;SDS011;3454;42.654;23.378;2023-09-19T07:03:07;6.25;;;4.13;;
6832;SDS011;3454;42.654;23.378;2023-09-19T07:05:37;9.13;;;5.40;;
6832;SDS011;3454;42.654;23.378;2023-09-19T07:08:04;8.05;;;6.13;;
6832;SDS011;3454;42.654;23.378;2023-09-19T07:10:31;8.57;;;5.45;;
6832;SDS011;3454;42.654;23.378;2023-09-19T07:15:28;10.23;;;7.43;;
6832;SDS011;3454;42.654;23.378;2023-09-19T07:17:56;7.32;;;5.97;;
6832;SDS011;3454;42.654;23.378;2023-09-19T07:20:23;11.80;;;7.03;;
6832;SDS011;3454;42.654;23.378;2023-09-19T07:22:54;8.10;;;5.95;;
6832;SDS011;3454;42.654;23.378;2023-09-19T07:25:21;11.70;;;6.28;;
6832;SDS011;3454;42.654;23.378;2023-09-19T07:27:47;10.75;;;6.60;;
6832;SDS011;3454;42.654;23.378;2023-09-19T07:30:13;8.88;;;5.88;;
6832;SDS011;3454;42.654;23.378;2023-09-19T07:32:41;6.97;;;4.60;;
6832;SDS011;3454;42.654;23.378;2023-09-19T07:35:07;6.53;;;4.55;;
6832;SDS011;3454;42.654;23.378;2023-09-19T07:37:33;6.57;;;4.28;;
6832;SDS011;3454;42.654;23.378;2023-09-19T07:40:01;8.45;;;4.63;;
6832;SDS011;3454;42.654;23.378;2023-09-19T07:42:36;9.13;;;5.47;;
6832;SDS011;3454;42.654;23.378;2023-09-19T07:45:04;6.55;;;3.90;;
6832;SDS011;3454;42.654;23.378;2023-09-19T07:47:30;8.55;;;3.97;;
6832;SDS011;3454;42.654;23.378;2023-09-19T07:49:58;6.40;;;4.25;;
6832;SDS011;3454;42.654;23.378;2023-09-19T07:52:25;9.27;;;5.03;;
6832;SDS011;3454;42.654;23.378;2023-09-19T07:54:53;6.55;;;4.13;;
6832;SDS011;3454;42.654;23.378;2023-09-19T07:57:20;5.97;;;4.38;;
6832;SDS011;3454;42.654;23.378;2023-09-19T07:59:46;6.65;;;4.85;;
6832;SDS011;3454;42.654;23.378;2023-09-19T08:02:11;7.15;;;4.57;;
6832;SDS011;3454;42.654;23.378;2023-09-19T08:04:43;8.45;;;4.43;;
6832;SDS011;3454;42.654;23.378;2023-09-19T08:07:11;9.15;;;4.78;;
6832;SDS011;3454;42.654;23.378;2023-09-19T08:09:37;8.02;;;4.80;;
6832;SDS011;3454;42.654;23.378;2023-09-19T08:12:04;7.22;;;4.43;;
6832;SDS011;3454;42.654;23.378;2023-09-19T08:14:32;7.10;;;4.30;;
6832;SDS011;3454;42.654;23.378;2023-09-19T08:16:58;6.45;;;4.88;;
6832;SDS011;3454;42.654;23.378;2023-09-19T08:19:25;9.95;;;4.78;;
6832;SDS011;3454;42.654;23.378;2023-09-19T08:21:57;8.98;;;4.97;;
6832;SDS011;3454;42.654;23.378;2023-09-19T08:24:28;7.75;;;4.53;;
6832;SDS011;3454;42.654;23.378;2023-09-19T08:26:55;14.00;;;5.22;;
6832;SDS011;3454;42.654;23.378;2023-09-19T08:29:21;6.65;;;4.47;;
6832;SDS011;3454;42.654;23.378;2023-09-19T08:31:56;7.20;;;4.90;;
6832;SDS011;3454;42.654;23.378;2023-09-19T08:34:25;9.32;;;4.40;;
6832;SDS011;3454;42.654;23.378;2023-09-19T08:36:55;6.30;;;4.55;;
6832;SDS011;3454;42.654;23.378;2023-09-19T08:39:24;5.50;;;4.30;;
6832;SDS011;3454;42.654;23.378;2023-09-19T08:41:59;5.75;;;4.25;;
6832;SDS011;3454;42.654;23.378;2023-09-19T08:44:27;5.22;;;3.97;;
6832;SDS011;3454;42.654;23.378;2023-09-19T08:47:15;9.88;;;4.15;;
6832;SDS011;3454;42.654;23.378;2023-09-19T08:49:56;7.95;;;4.22;;
6832;SDS011;3454;42.654;23.378;2023-09-19T08:52:43;8.50;;;4.07;;
6832;SDS011;3454;42.654;23.378;2023-09-19T08:55:12;6.50;;;3.90;;
6832;SDS011;3454;42.654;23.378;2023-09-19T08:57:45;8.20;;;4.53;;
6832;SDS011;3454;42.654;23.378;2023-09-19T09:00:14;6.05;;;3.85;;
6832;SDS011;3454;42.654;23.378;2023-09-19T09:02:43;8.38;;;4.15;;
6832;SDS011;3454;42.654;23.378;2023-09-19T09:05:10;4.50;;;3.95;;
6832;SDS011;3454;42.654;23.378;2023-09-19T09:07:37;9.05;;;4.00;;
6832;SDS011;3454;42.654;23.378;2023-09-19T09:10:05;8.65;;;4.30;;
6832;SDS011;3454;42.654;23.378;2023-09-19T09:12:32;8.00;;;4.00;;
6832;SDS011;3454;42.654;23.378;2023-09-19T09:15:01;6.03;;;3.75;;
6832;SDS011;3454;42.654;23.378;2023-09-19T09:17:29;5.85;;;3.70;;
6832;SDS011;3454;42.654;23.378;2023-09-19T09:19:55;7.88;;;4.28;;
6832;SDS011;3454;42.654;23.378;2023-09-19T09:22:22;5.82;;;4.20;;
6832;SDS011;3454;42.654;23.378;2023-09-19T09:24:55;5.35;;;3.95;;
6832;SDS011;3454;42.654;23.378;2023-09-19T09:27:24;6.97;;;4.00;;
6832;SDS011;3454;42.654;23.378;2023-09-19T09:29:51;6.07;;;4.15;;
6832;SDS011;3454;42.654;23.378;2023-09-19T09:32:22;8.68;;;4.13;;
6832;SDS011;3454;42.654;23.378;2023-09-19T09:34:57;5.68;;;3.88;;
6832;SDS011;3454;42.654;23.378;2023-09-19T09:37:25;6.95;;;4.13;;
6832;SDS011;3454;42.654;23.378;2023-09-19T09:39:57;7.60;;;4.90;;
6832;SDS011;3454;42.654;23.378;2023-09-19T09:42:39;5.13;;;4.53;;
6832;SDS011;3454;42.654;23.378;2023-09-19T09:48:03;6.43;;;3.78;;
6832;SDS011;3454;42.654;23.378;2023-09-19T09:50:39;5.05;;;4.03;;
6832;SDS011;3454;42.654;23.378;2023-09-19T09:53:28;7.40;;;3.55;;
6832;SDS011;3454;42.654;23.378;2023-09-19T09:58:27;4.03;;;3.45;;
6832;SDS011;3454;42.654;23.378;2023-09-19T10:01:04;6.03;;;3.80;;
6832;SDS011;3454;42.654;23.378;2023-09-19T10:03:42;8.70;;;4.32;;
6832;SDS011;3454;42.654;23.378;2023-09-19T10:06:12;7.93;;;3.72;;
6832;SDS011;3454;42.654;23.378;2023-09-19T10:08:58;4.55;;;3.95;;
6832;SDS011;3454;42.654;23.378;2023-09-19T10:12:03;6.45;;;4.13;;
6832;SDS011;3454;42.654;23.378;2023-09-19T10:14:35;8.07;;;4.10;;
6832;SDS011;3454;42.654;23.378;2023-09-19T10:17:04;9.23;;;4.82;;
6832;SDS011;3454;42.654;23.378;2023-09-19T10:19:37;8.40;;;4.65;;
6832;SDS011;3454;42.654;23.378;2023-09-19T10:22:12;7.68;;;4.35;;
6832;SDS011;3454;42.654;23.378;2023-09-19T10:24:48;7.10;;;3.97;;
6832;SDS011;3454;42.654;23.378;2023-09-19T10:27:19;8.73;;;4.50;;
6832;SDS011;3454;42.654;23.378;2023-09-19T10:29:48;8.68;;;5.97;;
6832;SDS011;3454;42.654;23.378;2023-09-19T10:32:19;10.68;;;5.72;;
6832;SDS011;3454;42.654;23.378;2023-09-19T10:34:48;7.25;;;4.25;;
6832;SDS011;3454;42.654;23.378;2023-09-19T10:37:15;5.72;;;4.05;;
6832;SDS011;3454;42.654;23.378;2023-09-19T10:39:48;8.77;;;4.78;;
6832;SDS011;3454;42.654;23.378;2023-09-19T10:42:18;7.47;;;4.15;;
6832;SDS011;3454;42.654;23.378;2023-09-19T10:44:45;4.05;;;3.58;;
6832;SDS011;3454;42.654;23.378;2023-09-19T10:47:19;5.13;;;4.22;;
6832;SDS011;3454;42.654;23.378;2023-09-19T10:49:48;5.35;;;4.13;;
6832;SDS011;3454;42.654;23.378;2023-09-19T10:52:19;7.22;;;4.07;;
6832;SDS011;3454;42.654;23.378;2023-09-19T10:54:50;6.07;;;4.13;;
6832;SDS011;3454;42.654;23.378;2023-09-19T10:57:22;5.45;;;4.15;;
6832;SDS011;3454;42.654;23.378;2023-09-19T11:00:05;10.18;;;4.05;;
6832;SDS011;3454;42.654;23.378;2023-09-19T11:06:14;5.97;;;3.88;;
6832;SDS011;3454;42.654;23.378;2023-09-19T11:08:55;6.88;;;4.03;;
6832;SDS011;3454;42.654;23.378;2023-09-19T11:30:31;6.35;;;5.15;;
6832;SDS011;3454;42.654;23.378;2023-09-19T11:33:16;6.65;;;4.80;;
6832;SDS011;3454;42.654;23.378;2023-09-19T11:36:15;7.25;;;4.00;;
6832;SDS011;3454;42.654;23.378;2023-09-19T11:43:54;5.30;;;4.68;;
6832;SDS011;3454;42.654;23.378;2023-09-19T11:46:53;6.00;;;4.43;;
6832;SDS011;3454;42.654;23.378;2023-09-19T11:49:26;7.18;;;4.05;;
6832;SDS011;3454;42.654;23.378;2023-09-19T11:52:01;6.40;;;3.55;;
6832;SDS011;3454;42.654;23.378;2023-09-19T11:54:33;6.13;;;4.25;;
6832;SDS011;3454;42.654;23.378;2023-09-19T11:57:05;9.68;;;4.20;;
6832;SDS011;3454;42.654;23.378;2023-09-19T11:59:34;8.50;;;4.50;;
6832;SDS011;3454;42.654;23.378;2023-09-19T12:02:05;5.65;;;4.88;;
6832;SDS011;3454;42.654;23.378;2023-09-19T12:04:41;9.52;;;4.47;;
6832;SDS011;3454;42.654;23.378;2023-09-19T12:07:14;5.90;;;4.15;;
6832;SDS011;3454;42.654;23.378;2023-09-19T12:09:49;5.72;;;4.85;;
6832;SDS011;3454;42.654;23.378;2023-09-19T12:12:34;5.10;;;4.47;;
6832;SDS011;3454;42.654;23.378;2023-09-19T12:14:59;7.07;;;4.38;;
6832;SDS011;3454;42.654;23.378;2023-09-19T12:17:39;7.03;;;4.47;;
6832;SDS011;3454;42.654;23.378;2023-09-19T12:20:08;8.40;;;4.50;;
6832;SDS011;3454;42.654;23.378;2023-09-19T12:22:42;4.47;;;4.00;;
6832;SDS011;3454;42.654;23.378;2023-09-19T12:25:09;5.03;;;4.43;;
6832;SDS011;3454;42.654;23.378;2023-09-19T12:27:46;5.70;;;4.35;;
6832;SDS011;3454;42.654;23.378;2023-09-19T12:30:18;7.25;;;5.80;;
6832;SDS011;3454;42.654;23.378;2023-09-19T12:32:46;5.32;;;4.47;;
6832;SDS011;3454;42.654;23.378;2023-09-19T12:35:27;8.52;;;4.32;;
6832;SDS011;3454;42.654;23.378;2023-09-19T12:37:56;4.90;;;4.40;;
6832;SDS011;3454;42.654;23.378;2023-09-19T12:40:22;8.07;;;3.95;;
6832;SDS011;3454;42.654;23.378;2023-09-19T12:42:52;4.93;;;4.00;;
6832;SDS011;3454;42.654;23.378;2023-09-19T12:45:20;7.35;;;4.18;;
6832;SDS011;3454;42.654;23.378;2023-09-19T12:53:33;6.93;;;4.53;;
6832;SDS011;3454;42.654;23.378;2023-09-19T12:56:08;4.55;;;4.03;;
6832;SDS011;3454;42.654;23.378;2023-09-19T13:01:19;5.97;;;4.35;;
6832;SDS011;3454;42.654;23.378;2023-09-19T13:06:38;6.00;;;3.92;;
6832;SDS011;3454;42.654;23.378;2023-09-19T13:09:09;4.45;;;4.05;;
6832;SDS011;3454;42.654;23.378;2023-09-19T13:11:46;8.27;;;4.15;;
6832;SDS011;3454;42.654;23.378;2023-09-19T13:14:23;5.47;;;3.50;;
6832;SDS011;3454;42.654;23.378;2023-09-19T13:19:34;6.78;;;4.05;;
6832;SDS011;3454;42.654;23.378;2023-09-19T13:25:07;13.05;;;4.28;;
6832;SDS011;3454;42.654;23.378;2023-09-19T13:27:41;6.50;;;4.95;;
6832;SDS011;3454;42.654;23.378;2023-09-19T13:30:07;6.95;;;6.25;;
6832;SDS011;3454;42.654;23.378;2023-09-19T13:32:34;5.18;;;4.68;;
6832;SDS011;3454;42.654;23.378;2023-09-19T13:34:59;6.25;;;4.25;;
6832;SDS011;3454;42.654;23.378;2023-09-19T13:37:25;6.40;;;4.90;;
6832;SDS011;3454;42.654;23.378;2023-09-19T13:39:51;5.60;;;4.50;;
6832;SDS011;3454;42.654;23.378;2023-09-19T13:42:17;5.22;;;4.47;;
6832;SDS011;3454;42.654;23.378;2023-09-19T13:44:44;4.90;;;4.47;;
6832;SDS011;3454;42.654;23.378;2023-09-19T13:47:09;7.97;;;4.85;;
6832;SDS011;3454;42.654;23.378;2023-09-19T13:49:36;9.13;;;4.80;;
6832;SDS011;3454;42.654;23.378;2023-09-19T13:52:03;10.27;;;4.68;;
6832;SDS011;3454;42.654;23.378;2023-09-19T13:54:30;6.03;;;4.45;;
6832;SDS011;3454;42.654;23.378;2023-09-19T13:56:55;5.80;;;4.57;;
6832;SDS011;3454;42.654;23.378;2023-09-19T13:59:21;6.63;;;4.28;;
6832;SDS011;3454;42.654;23.378;2023-09-19T14:01:49;6.93;;;4.18;;
6832;SDS011;3454;42.654;23.378;2023-09-19T14:04:15;7.30;;;4.65;;
6832;SDS011;3454;42.654;23.378;2023-09-19T14:06:41;6.65;;;4.95;;
6832;SDS011;3454;42.654;23.378;2023-09-19T14:09:07;9.95;;;4.40;;
6832;SDS011;3454;42.654;23.378;2023-09-19T14:11:42;6.55;;;4.90;;
6832;SDS011;3454;42.654;23.378;2023-09-19T14:14:11;7.45;;;5.63;;
6832;SDS011;3454;42.654;23.378;2023-09-19T14:16:36;6.47;;;5.05;;
6832;SDS011;3454;42.654;23.378;2023-09-19T14:19:02;7.50;;;4.75;;
6832;SDS011;3454;42.654;23.378;2023-09-19T14:21:27;7.05;;;5.30;;
6832;SDS011;3454;42.654;23.378;2023-09-19T14:23:53;6.82;;;4.15;;
6832;SDS011;3454;42.654;23.378;2023-09-19T14:26:20;6.75;;;4.82;;
6832;SDS011;3454;42.654;23.378;2023-09-19T14:28:48;8.32;;;4.68;;
6832;SDS011;3454;42.654;23.378;2023-09-19T14:31:13;8.02;;;4.85;;
6832;SDS011;3454;42.654;23.378;2023-09-19T14:33:40;7.10;;;5.47;;
6832;SDS011;3454;42.654;23.378;2023-09-19T14:36:07;6.68;;;5.03;;
6832;SDS011;3454;42.654;23.378;2023-09-19T14:38:35;5.63;;;4.63;;
6832;SDS011;3454;42.654;23.378;2023-09-19T14:41:02;5.50;;;4.40;;
6832;SDS011;3454;42.654;23.378;2023-09-19T14:43:29;5.20;;;4.63;;
6832;SDS011;3454;42.654;23.378;2023-09-19T14:46:02;5.63;;;4.15;;
6832;SDS011;3454;42.654;23.378;2023-09-19T14:48:29;5.07;;;4.47;;
6832;SDS011;3454;42.654;23.378;2023-09-19T14:50:55;7.35;;;4.35;;
6832;SDS011;3454;42.654;23.378;2023-09-19T14:53:28;5.60;;;4.80;;
6832;SDS011;3454;42.654;23.378;2023-09-19T14:55:56;5.13;;;4.63;;
6832;SDS011;3454;42.654;23.378;2023-09-19T14:58:21;6.45;;;4.57;;
6832;SDS011;3454;42.654;23.378;2023-09-19T15:00:48;5.60;;;4.95;;
6832;SDS011;3454;42.654;23.378;2023-09-19T15:03:19;7.05;;;4.57;;
6832;SDS011;3454;42.654;23.378;2023-09-19T15:05:50;5.38;;;4.38;;
6832;SDS011;3454;42.654;23.378;2023-09-19T15:08:26;6.78;;;4.78;;
6832;SDS011;3454;42.654;23.378;2023-09-19T15:10:53;5.28;;;4.55;;
6832;SDS011;3454;42.654;23.378;2023-09-19T15:13:19;12.45;;;5.28;;
6832;SDS011;3454;42.654;23.378;2023-09-19T15:15:45;5.50;;;4.68;;
6832;SDS011;3454;42.654;23.378;2023-09-19T15:18:14;6.82;;;4.60;;
6832;SDS011;3454;42.654;23.378;2023-09-19T15:20:44;7.43;;;5.28;;
6832;SDS011;3454;42.654;23.378;2023-09-19T15:23:11;5.82;;;4.57;;
6832;SDS011;3454;42.654;23.378;2023-09-19T15:25:37;6.90;;;5.10;;
6832;SDS011;3454;42.654;23.378;2023-09-19T15:28:05;8.95;;;4.90;;
6832;SDS011;3454;42.654;23.378;2023-09-19T15:30:37;7.30;;;5.43;;
6832;SDS011;3454;42.654;23.378;2023-09-19T15:33:03;5.35;;;4.80;;
6832;SDS011;3454;42.654;23.378;2023-09-19T15:35:30;5.93;;;4.88;;
6832;SDS011;3454;42.654;23.378;2023-09-19T15:37:55;9.90;;;4.85;;
6832;SDS011;3454;42.654;23.378;2023-09-19T15:40:22;7.00;;;4.65;;
6832;SDS011;3454;42.654;23.378;2023-09-19T15:42:49;7.57;;;4.97;;
6832;SDS011;3454;42.654;23.378;2023-09-19T15:45:16;6.07;;;5.13;;
6832;SDS011;3454;42.654;23.378;2023-09-19T15:47:44;6.15;;;4.78;;
6832;SDS011;3454;42.654;23.378;2023-09-19T15:50:11;8.20;;;4.78;;
6832;SDS011;3454;42.654;23.378;2023-09-19T15:52:43;7.47;;;5.65;;
6832;SDS011;3454;42.654;23.378;2023-09-19T15:55:09;6.15;;;4.90;;
6832;SDS011;3454;42.654;23.378;2023-09-19T15:57:37;8.32;;;4.97;;
6832;SDS011;3454;42.654;23.378;2023-09-19T16:00:04;6.72;;;4.43;;
6832;SDS011;3454;42.654;23.378;2023-09-19T16:02:38;5.70;;;5.13;;
6832;SDS011;3454;42.654;23.378;2023-09-19T16:05:03;6.13;;;5.05;;
6832;SDS011;3454;42.654;23.378;2023-09-19T16:07:32;8.52;;;5.28;;
6832;SDS011;3454;42.654;23.378;2023-09-19T16:10:03;6.63;;;5.10;;
6832;SDS011;3454;42.654;23.378;2023-09-19T16:12:29;6.68;;;5.43;;
6832;SDS011;3454;42.654;23.378;2023-09-19T16:14:55;5.57;;;4.68;;
6832;SDS011;3454;42.654;23.378;2023-09-19T16:17:21;9.02;;;5.18;;
6832;SDS011;3454;42.654;23.378;2023-09-19T16:19:47;7.25;;;4.90;;
6832;SDS011;3454;42.654;23.378;2023-09-19T16:22:13;7.82;;;4.50;;
6832;SDS011;3454;42.654;23.378;2023-09-19T16:24:39;9.07;;;5.13;;
6832;SDS011;3454;42.654;23.378;2023-09-19T16:27:04;8.57;;;5.10;;